sensor_id;sensor_type;location;lat;lon;timestamp;temperature;humidity
23283;DHT22;11810;51.178;3.878;2022-12-08T00:01:08;4.60;99.90
23283;DHT22;11810;51.178;3.878;2022-12-08T00:03:44;4.70;99.90
23283;DHT22;11810;51.178;3.878;2022-12-08T00:09:15;4.70;99.90
23283;DHT22;11810;51.178;3.878;2022-12-08T00:11:48;4.80;99.90
23283;DHT22;11810;51.178;3.878;2022-12-08T00:14:14;4.70;99.90
23283;DHT22;11810;51.178;3.878;2022-12-08T00:16:40;4.60;99.90
23283;DHT22;11810;51.178;3.878;2022-12-08T00:19:05;4.60;99.90
23283;DHT22;11810;51.178;3.878;2022-12-08T00:21:31;4.80;99.90
23283;DHT22;11810;51.178;3.878;2022-12-08T00:23:57;4.70;99.90
23283;DHT22;11810;51.178;3.878;2022-12-08T00:27:47;4.60;99.90
23283;DHT22;11810;51.178;3.878;2022-12-08T00:30:13;4.50;99.90
23283;DHT22;11810;51.178;3.878;2022-12-08T00:32:39;4.50;99.90
23283;DHT22;11810;51.178;3.878;2022-12-08T00:36:48;4.50;99.90
23283;DHT22;11810;51.178;3.878;2022-12-08T00:39:15;4.40;99.90
23283;DHT22;11810;51.178;3.878;2022-12-08T00:41:41;4.50;99.90
23283;DHT22;11810;51.178;3.878;2022-12-08T00:44:26;4.30;99.90
23283;DHT22;11810;51.178;3.878;2022-12-08T00:46:51;4.30;99.90
23283;DHT22;11810;51.178;3.878;2022-12-08T00:50:48;4.30;99.90
23283;DHT22;11810;51.178;3.878;2022-12-08T00:53:14;4.40;99.90
23283;DHT22;11810;51.178;3.878;2022-12-08T00:56:49;4.30;99.90
23283;DHT22;11810;51.178;3.878;2022-12-08T00:59:15;4.30;99.90
23283;DHT22;11810;51.178;3.878;2022-12-08T01:01:43;4.20;99.90
23283;DHT22;11810;51.178;3.878;2022-12-08T01:05:50;4.10;99.90
23283;DHT22;11810;51.178;3.878;2022-12-08T01:08:16;4.10;99.90
23283;DHT22;11810;51.178;3.878;2022-12-08T01:10:42;4.10;99.90
23283;DHT22;11810;51.178;3.878;2022-12-08T01:13:08;4.20;99.90
23283;DHT22;11810;51.178;3.878;2022-12-08T01:15:34;4.10;99.90
23283;DHT22;11810;51.178;3.878;2022-12-08T01:18:01;4.10;99.90
23283;DHT22;11810;51.178;3.878;2022-12-08T01:20:27;4.10;99.90
23283;DHT22;11810;51.178;3.878;2022-12-08T01:22:53;4.00;99.90
23283;DHT22;11810;51.178;3.878;2022-12-08T01:25:18;4.00;99.90
23283;DHT22;11810;51.178;3.878;2022-12-08T01:27:53;3.90;99.90
23283;DHT22;11810;51.178;3.878;2022-12-08T01:30:20;3.90;99.90
23283;DHT22;11810;51.178;3.878;2022-12-08T01:34:54;4.00;99.90
23283;DHT22;11810;51.178;3.878;2022-12-08T01:38:06;3.90;99.90
23283;DHT22;11810;51.178;3.878;2022-12-08T01:40:32;3.90;99.90
23283;DHT22;11810;51.178;3.878;2022-12-08T01:42:58;3.90;99.90
23283;DHT22;11810;51.178;3.878;2022-12-08T01:45:26;4.00;99.90
23283;DHT22;11810;51.178;3.878;2022-12-08T01:48:10;4.10;99.90
23283;DHT22;11810;51.178;3.878;2022-12-08T01:50:38;4.00;99.90
23283;DHT22;11810;51.178;3.878;2022-12-08T01:53:14;4.10;99.90
23283;DHT22;11810;51.178;3.878;2022-12-08T01:55:46;4.20;99.90
23283;DHT22;11810;51.178;3.878;2022-12-08T01:58:17;4.20;99.90
23283;DHT22;11810;51.178;3.878;2022-12-08T02:00:45;4.30;99.90
23283;DHT22;11810;51.178;3.878;2022-12-08T02:03:21;4.30;99.90
23283;DHT22;11810;51.178;3.878;2022-12-08T02:05:48;4.30;99.90
23283;DHT22;11810;51.178;3.878;2022-12-08T02:08:14;4.40;99.90
23283;DHT22;11810;51.178;3.878;2022-12-08T02:10:42;4.40;99.90
23283;DHT22;11810;51.178;3.878;2022-12-08T02:13:12;4.50;99.90
23283;DHT22;11810;51.178;3.878;2022-12-08T02:15:59;4.60;99.90
23283;DHT22;11810;51.178;3.878;2022-12-08T02:18:52;4.60;99.90
23283;DHT22;11810;51.178;3.878;2022-12-08T02:21:41;4.70;99.90
23283;DHT22;11810;51.178;3.878;2022-12-08T02:40:24;4.90;99.90
23283;DHT22;11810;51.178;3.878;2022-12-08T02:48:27;4.80;99.90
23283;DHT22;11810;51.178;3.878;2022-12-08T02:50:54;4.70;99.90
23283;DHT22;11810;51.178;3.878;2022-12-08T02:53:20;4.60;99.90
23283;DHT22;11810;51.178;3.878;2022-12-08T02:59:25;4.60;99.90
23283;DHT22;11810;51.178;3.878;2022-12-08T03:03:25;4.50;99.90
23283;DHT22;11810;51.178;3.878;2022-12-08T03:09:48;4.40;99.90
23283;DHT22;11810;51.178;3.878;2022-12-08T03:15:12;4.30;99.90
23283;DHT22;11810;51.178;3.878;2022-12-08T03:17:42;4.40;99.90
23283;DHT22;11810;51.178;3.878;2022-12-08T03:20:13;4.30;99.90
23283;DHT22;11810;51.178;3.878;2022-12-08T03:25:09;4.40;99.90
23283;DHT22;11810;51.178;3.878;2022-12-08T03:27:37;4.40;99.90
23283;DHT22;11810;51.178;3.878;2022-12-08T03:30:04;4.50;99.90
23283;DHT22;11810;51.178;3.878;2022-12-08T03:35:10;4.70;99.90
23283;DHT22;11810;51.178;3.878;2022-12-08T03:38:08;4.70;99.90
23283;DHT22;11810;51.178;3.878;2022-12-08T03:40:35;4.60;99.90
23283;DHT22;11810;51.178;3.878;2022-12-08T03:43:02;4.60;99.90
23283;DHT22;11810;51.178;3.878;2022-12-08T03:45:28;4.60;99.90
23283;DHT22;11810;51.178;3.878;2022-12-08T03:47:54;4.70;99.90
23283;DHT22;11810;51.178;3.878;2022-12-08T03:50:20;4.70;99.90
23283;DHT22;11810;51.178;3.878;2022-12-08T03:52:47;4.70;99.90
23283;DHT22;11810;51.178;3.878;2022-12-08T03:55:14;4.80;99.90
23283;DHT22;11810;51.178;3.878;2022-12-08T03:57:40;4.70;99.90
23283;DHT22;11810;51.178;3.878;2022-12-08T04:00:07;4.70;99.90
23283;DHT22;11810;51.178;3.878;2022-12-08T04:02:33;4.70;99.90
23283;DHT22;11810;51.178;3.878;2022-12-08T04:04:59;4.80;99.90
23283;DHT22;11810;51.178;3.878;2022-12-08T04:07:25;4.80;99.90
23283;DHT22;11810;51.178;3.878;2022-12-08T04:09:51;4.90;99.90
23283;DHT22;11810;51.178;3.878;2022-12-08T04:12:17;4.80;99.90
23283;DHT22;11810;51.178;3.878;2022-12-08T04:14:43;4.70;99.90
23283;DHT22;11810;51.178;3.878;2022-12-08T04:18:14;4.70;99.90
23283;DHT22;11810;51.178;3.878;2022-12-08T04:20:41;4.60;99.90
23283;DHT22;11810;51.178;3.878;2022-12-08T04:23:08;4.60;99.90
23283;DHT22;11810;51.178;3.878;2022-12-08T04:25:34;4.60;99.90
23283;DHT22;11810;51.178;3.878;2022-12-08T04:28:01;4.50;99.90
23283;DHT22;11810;51.178;3.878;2022-12-08T04:30:27;4.40;99.90
23283;DHT22;11810;51.178;3.878;2022-12-08T04:32:52;4.50;99.90
23283;DHT22;11810;51.178;3.878;2022-12-08T04:35:18;4.50;99.90
23283;DHT22;11810;51.178;3.878;2022-12-08T04:37:44;4.40;99.90
23283;DHT22;11810;51.178;3.878;2022-12-08T04:40:11;4.50;99.90
23283;DHT22;11810;51.178;3.878;2022-12-08T04:42:37;4.40;99.90
23283;DHT22;11810;51.178;3.878;2022-12-08T04:45:04;4.40;99.90
23283;DHT22;11810;51.178;3.878;2022-12-08T04:47:30;4.30;99.90
23283;DHT22;11810;51.178;3.878;2022-12-08T04:49:56;4.40;99.90
23283;DHT22;11810;51.178;3.878;2022-12-08T04:52:22;4.40;99.90
23283;DHT22;11810;51.178;3.878;2022-12-08T04:54:48;4.50;99.90
23283;DHT22;11810;51.178;3.878;2022-12-08T04:57:14;4.50;99.90
23283;DHT22;11810;51.178;3.878;2022-12-08T04:59:40;4.40;99.90
23283;DHT22;11810;51.178;3.878;2022-12-08T05:02:06;4.50;99.90
23283;DHT22;11810;51.178;3.878;2022-12-08T05:04:32;4.40;99.90
23283;DHT22;11810;51.178;3.878;2022-12-08T05:06:58;4.40;99.90
23283;DHT22;11810;51.178;3.878;2022-12-08T05:09:24;4.50;99.90
23283;DHT22;11810;51.178;3.878;2022-12-08T05:11:50;4.50;99.90
23283;DHT22;11810;51.178;3.878;2022-12-08T05:14:17;4.50;99.90
23283;DHT22;11810;51.178;3.878;2022-12-08T05:16:44;4.60;99.90
23283;DHT22;11810;51.178;3.878;2022-12-08T05:19:54;4.60;99.90
23283;DHT22;11810;51.178;3.878;2022-12-08T05:22:20;4.40;99.90
23283;DHT22;11810;51.178;3.878;2022-12-08T05:24:46;4.40;99.90
23283;DHT22;11810;51.178;3.878;2022-12-08T05:27:12;4.40;99.90
23283;DHT22;11810;51.178;3.878;2022-12-08T05:29:38;4.40;99.90
23283;DHT22;11810;51.178;3.878;2022-12-08T05:32:04;4.30;99.90
23283;DHT22;11810;51.178;3.878;2022-12-08T05:34:30;4.30;99.90
23283;DHT22;11810;51.178;3.878;2022-12-08T05:36:56;4.30;99.90
23283;DHT22;11810;51.178;3.878;2022-12-08T05:39:22;4.20;99.90
23283;DHT22;11810;51.178;3.878;2022-12-08T05:41:48;4.20;99.90
23283;DHT22;11810;51.178;3.878;2022-12-08T05:45:24;4.20;99.90
23283;DHT22;11810;51.178;3.878;2022-12-08T05:47:52;4.10;99.90
23283;DHT22;11810;51.178;3.878;2022-12-08T05:50:18;4.00;99.90
23283;DHT22;11810;51.178;3.878;2022-12-08T05:52:44;4.00;99.90
23283;DHT22;11810;51.178;3.878;2022-12-08T05:55:10;4.00;99.90
23283;DHT22;11810;51.178;3.878;2022-12-08T05:57:36;4.10;99.90
23283;DHT22;11810;51.178;3.878;2022-12-08T06:00:02;4.20;99.90
23283;DHT22;11810;51.178;3.878;2022-12-08T06:03:26;4.10;99.90
23283;DHT22;11810;51.178;3.878;2022-12-08T06:05:52;4.00;99.90
23283;DHT22;11810;51.178;3.878;2022-12-08T06:08:18;4.00;99.90
23283;DHT22;11810;51.178;3.878;2022-12-08T06:10:45;3.90;99.90
23283;DHT22;11810;51.178;3.878;2022-12-08T06:13:27;3.90;99.90
23283;DHT22;11810;51.178;3.878;2022-12-08T06:15:53;3.90;99.90
23283;DHT22;11810;51.178;3.878;2022-12-08T06:18:19;3.90;99.90
23283;DHT22;11810;51.178;3.878;2022-12-08T06:20:45;4.00;99.90
23283;DHT22;11810;51.178;3.878;2022-12-08T06:23:12;4.00;99.90
23283;DHT22;11810;51.178;3.878;2022-12-08T06:26:30;4.10;99.90
23283;DHT22;11810;51.178;3.878;2022-12-08T06:28:56;4.10;99.90
23283;DHT22;11810;51.178;3.878;2022-12-08T06:31:24;4.00;99.90
23283;DHT22;11810;51.178;3.878;2022-12-08T06:33:51;3.90;99.90
23283;DHT22;11810;51.178;3.878;2022-12-08T06:36:19;3.90;99.90
23283;DHT22;11810;51.178;3.878;2022-12-08T06:38:46;3.90;99.90
23283;DHT22;11810;51.178;3.878;2022-12-08T06:41:12;4.00;99.90
23283;DHT22;11810;51.178;3.878;2022-12-08T06:43:39;4.00;99.90
23283;DHT22;11810;51.178;3.878;2022-12-08T06:46:08;4.00;99.90
23283;DHT22;11810;51.178;3.878;2022-12-08T06:48:34;4.10;99.90
23283;DHT22;11810;51.178;3.878;2022-12-08T06:51:11;4.10;99.90
23283;DHT22;11810;51.178;3.878;2022-12-08T06:53:38;4.10;99.90
23283;DHT22;11810;51.178;3.878;2022-12-08T06:56:05;4.10;99.90
23283;DHT22;11810;51.178;3.878;2022-12-08T06:58:33;4.20;99.90
23283;DHT22;11810;51.178;3.878;2022-12-08T07:01:07;4.10;99.90
23283;DHT22;11810;51.178;3.878;2022-12-08T07:03:33;4.00;99.90
23283;DHT22;11810;51.178;3.878;2022-12-08T07:07:34;4.00;99.90
23283;DHT22;11810;51.178;3.878;2022-12-08T07:10:00;4.00;99.90
23283;DHT22;11810;51.178;3.878;2022-12-08T07:12:26;3.90;99.90
23283;DHT22;11810;51.178;3.878;2022-12-08T07:14:52;3.90;99.90
23283;DHT22;11810;51.178;3.878;2022-12-08T07:17:18;3.90;99.90
23283;DHT22;11810;51.178;3.878;2022-12-08T07:19:44;3.90;99.90
23283;DHT22;11810;51.178;3.878;2022-12-08T07:22:10;4.00;99.90
23283;DHT22;11810;51.178;3.878;2022-12-08T07:24:36;3.90;99.90
23283;DHT22;11810;51.178;3.878;2022-12-08T07:27:02;4.00;99.90
23283;DHT22;11810;51.178;3.878;2022-12-08T07:29:27;4.00;99.90
23283;DHT22;11810;51.178;3.878;2022-12-08T07:31:53;4.10;99.90
23283;DHT22;11810;51.178;3.878;2022-12-08T07:34:19;4.10;99.90
23283;DHT22;11810;51.178;3.878;2022-12-08T07:38:38;4.10;99.90
23283;DHT22;11810;51.178;3.878;2022-12-08T07:41:04;4.00;99.90
23283;DHT22;11810;51.178;3.878;2022-12-08T07:43:30;4.00;99.90
23283;DHT22;11810;51.178;3.878;2022-12-08T07:45:56;4.00;99.90
23283;DHT22;11810;51.178;3.878;2022-12-08T07:48:22;3.90;99.90
23283;DHT22;11810;51.178;3.878;2022-12-08T07:50:48;3.90;99.90
23283;DHT22;11810;51.178;3.878;2022-12-08T07:54:40;3.90;99.90
23283;DHT22;11810;51.178;3.878;2022-12-08T07:57:06;3.90;99.90
23283;DHT22;11810;51.178;3.878;2022-12-08T07:59:33;3.90;99.90
23283;DHT22;11810;51.178;3.878;2022-12-08T08:01:59;3.80;99.90
23283;DHT22;11810;51.178;3.878;2022-12-08T08:04:25;3.80;99.90
23283;DHT22;11810;51.178;3.878;2022-12-08T08:07:30;3.90;99.90
23283;DHT22;11810;51.178;3.878;2022-12-08T08:10:43;4.00;99.90
23283;DHT22;11810;51.178;3.878;2022-12-08T08:13:09;4.00;99.90
23283;DHT22;11810;51.178;3.878;2022-12-08T08:15:35;4.10;99.90
23283;DHT22;11810;51.178;3.878;2022-12-08T08:19:45;4.30;99.90
23283;DHT22;11810;51.178;3.878;2022-12-08T08:22:11;4.30;99.90
23283;DHT22;11810;51.178;3.878;2022-12-08T08:24:36;4.20;99.90
23283;DHT22;11810;51.178;3.878;2022-12-08T08:27:02;4.20;99.90
23283;DHT22;11810;51.178;3.878;2022-12-08T08:29:28;4.20;99.90
23283;DHT22;11810;51.178;3.878;2022-12-08T08:31:54;4.10;99.90
23283;DHT22;11810;51.178;3.878;2022-12-08T08:34:20;4.10;99.90
23283;DHT22;11810;51.178;3.878;2022-12-08T08:36:46;4.10;99.90
23283;DHT22;11810;51.178;3.878;2022-12-08T08:39:12;4.20;99.90
23283;DHT22;11810;51.178;3.878;2022-12-08T08:41:38;4.10;99.90
23283;DHT22;11810;51.178;3.878;2022-12-08T08:44:04;4.20;99.90
23283;DHT22;11810;51.178;3.878;2022-12-08T08:46:31;4.20;99.90
23283;DHT22;11810;51.178;3.878;2022-12-08T08:48:57;4.10;99.90
23283;DHT22;11810;51.178;3.878;2022-12-08T08:51:23;4.00;99.90
23283;DHT22;11810;51.178;3.878;2022-12-08T08:53:49;4.00;99.90
23283;DHT22;11810;51.178;3.878;2022-12-08T08:56:17;3.90;99.90
23283;DHT22;11810;51.178;3.878;2022-12-08T08:58:50;3.80;99.90
23283;DHT22;11810;51.178;3.878;2022-12-08T09:01:18;3.90;99.90
23283;DHT22;11810;51.178;3.878;2022-12-08T09:03:46;4.00;99.90
23283;DHT22;11810;51.178;3.878;2022-12-08T09:09:48;4.80;99.90
23283;DHT22;11810;51.178;3.878;2022-12-08T09:12:14;5.50;99.90
23283;DHT22;11810;51.178;3.878;2022-12-08T09:14:39;6.00;99.90
23283;DHT22;11810;51.178;3.878;2022-12-08T09:17:06;5.90;99.90
23283;DHT22;11810;51.178;3.878;2022-12-08T09:19:32;5.60;99.90
23283;DHT22;11810;51.178;3.878;2022-12-08T09:21:58;5.50;99.90
23283;DHT22;11810;51.178;3.878;2022-12-08T09:24:24;5.80;99.90
23283;DHT22;11810;51.178;3.878;2022-12-08T09:28:51;7.00;99.90
23283;DHT22;11810;51.178;3.878;2022-12-08T09:31:20;7.30;99.90
23283;DHT22;11810;51.178;3.878;2022-12-08T09:33:46;7.00;99.90
23283;DHT22;11810;51.178;3.878;2022-12-08T09:36:12;6.40;99.90
23283;DHT22;11810;51.178;3.878;2022-12-08T09:38:39;6.10;99.90
23283;DHT22;11810;51.178;3.878;2022-12-08T09:41:15;5.80;99.90
23283;DHT22;11810;51.178;3.878;2022-12-08T09:46:46;5.50;99.90
23283;DHT22;11810;51.178;3.878;2022-12-08T09:49:15;5.50;99.90
23283;DHT22;11810;51.178;3.878;2022-12-08T09:51:43;5.30;99.90
23283;DHT22;11810;51.178;3.878;2022-12-08T09:56:39;5.30;99.90
23283;DHT22;11810;51.178;3.878;2022-12-08T10:01:35;5.10;99.90
23283;DHT22;11810;51.178;3.878;2022-12-08T10:04:38;5.00;99.90
23283;DHT22;11810;51.178;3.878;2022-12-08T10:17:02;4.50;99.90
23283;DHT22;11810;51.178;3.878;2022-12-08T10:19:31;4.60;99.90
23283;DHT22;11810;51.178;3.878;2022-12-08T10:21:58;4.70;99.90
23283;DHT22;11810;51.178;3.878;2022-12-08T10:24:33;4.90;99.90
23283;DHT22;11810;51.178;3.878;2022-12-08T10:27:03;5.00;99.90
23283;DHT22;11810;51.178;3.878;2022-12-08T10:30:59;5.10;99.90
23283;DHT22;11810;51.178;3.878;2022-12-08T10:33:25;5.20;99.90
23283;DHT22;11810;51.178;3.878;2022-12-08T10:35:58;5.10;99.90
23283;DHT22;11810;51.178;3.878;2022-12-08T10:38:34;5.10;99.90
23283;DHT22;11810;51.178;3.878;2022-12-08T10:42:59;5.00;99.90
23283;DHT22;11810;51.178;3.878;2022-12-08T10:45:39;5.00;99.90
23283;DHT22;11810;51.178;3.878;2022-12-08T10:50:58;5.10;99.90
23283;DHT22;11810;51.178;3.878;2022-12-08T10:53:25;5.10;99.90
23283;DHT22;11810;51.178;3.878;2022-12-08T10:56:05;5.10;99.90
23283;DHT22;11810;51.178;3.878;2022-12-08T10:59:15;5.20;99.90
23283;DHT22;11810;51.178;3.878;2022-12-08T11:01:46;5.20;99.90
23283;DHT22;11810;51.178;3.878;2022-12-08T11:04:18;5.30;99.90
23283;DHT22;11810;51.178;3.878;2022-12-08T11:06:46;5.30;99.90
23283;DHT22;11810;51.178;3.878;2022-12-08T11:13:06;5.50;99.90
23283;DHT22;11810;51.178;3.878;2022-12-08T11:15:37;5.60;99.90
23283;DHT22;11810;51.178;3.878;2022-12-08T11:21:06;5.80;99.90
23283;DHT22;11810;51.178;3.878;2022-12-08T11:23:34;5.70;99.90
23283;DHT22;11810;51.178;3.878;2022-12-08T11:26:06;5.50;99.90
23283;DHT22;11810;51.178;3.878;2022-12-08T11:28:36;5.50;99.90
23283;DHT22;11810;51.178;3.878;2022-12-08T11:31:31;5.50;99.90
23283;DHT22;11810;51.178;3.878;2022-12-08T11:33:59;5.60;99.90
23283;DHT22;11810;51.178;3.878;2022-12-08T11:36:28;5.60;99.90
23283;DHT22;11810;51.178;3.878;2022-12-08T11:38:59;5.70;99.90
23283;DHT22;11810;51.178;3.878;2022-12-08T11:41:37;5.70;99.90
23283;DHT22;11810;51.178;3.878;2022-12-08T11:44:28;5.90;99.90
23283;DHT22;11810;51.178;3.878;2022-12-08T11:46:58;6.20;99.90
23283;DHT22;11810;51.178;3.878;2022-12-08T11:49:38;6.40;99.90
23283;DHT22;11810;51.178;3.878;2022-12-08T11:52:06;6.30;99.90
23283;DHT22;11810;51.178;3.878;2022-12-08T11:55:33;6.50;99.90
23283;DHT22;11810;51.178;3.878;2022-12-08T12:00:54;6.80;99.90
23283;DHT22;11810;51.178;3.878;2022-12-08T12:03:33;6.90;99.90
23283;DHT22;11810;51.178;3.878;2022-12-08T12:06:49;6.50;99.90
23283;DHT22;11810;51.178;3.878;2022-12-08T12:09:02;6.20;99.90
23283;DHT22;11810;51.178;3.878;2022-12-08T12:11:59;5.90;99.90
23283;DHT22;11810;51.178;3.878;2022-12-08T12:18:38;5.30;99.90
23283;DHT22;11810;51.178;3.878;2022-12-08T12:21:10;5.30;99.90
23283;DHT22;11810;51.178;3.878;2022-12-08T12:26:19;5.10;99.90
23283;DHT22;11810;51.178;3.878;2022-12-08T12:29:02;5.20;99.90
23283;DHT22;11810;51.178;3.878;2022-12-08T12:31:38;4.90;99.90
23283;DHT22;11810;51.178;3.878;2022-12-08T12:34:30;4.80;99.90
23283;DHT22;11810;51.178;3.878;2022-12-08T12:37:10;4.80;99.90
23283;DHT22;11810;51.178;3.878;2022-12-08T12:40:20;4.60;99.90
23283;DHT22;11810;51.178;3.878;2022-12-08T12:45:35;4.70;99.90
23283;DHT22;11810;51.178;3.878;2022-12-08T12:50:48;4.30;99.90
23283;DHT22;11810;51.178;3.878;2022-12-08T12:56:01;4.30;99.90
23283;DHT22;11810;51.178;3.878;2022-12-08T13:06:49;4.60;99.90
23283;DHT22;11810;51.178;3.878;2022-12-08T13:09:28;4.40;99.90
23283;DHT22;11810;51.178;3.878;2022-12-08T13:11:57;4.00;99.90
23283;DHT22;11810;51.178;3.878;2022-12-08T13:15:19;4.20;99.90
23283;DHT22;11810;51.178;3.878;2022-12-08T13:17:47;4.30;99.90
23283;DHT22;11810;51.178;3.878;2022-12-08T13:20:20;4.40;99.90
23283;DHT22;11810;51.178;3.878;2022-12-08T13:24:33;4.30;99.90
23283;DHT22;11810;51.178;3.878;2022-12-08T13:29:32;4.40;99.90
23283;DHT22;11810;51.178;3.878;2022-12-08T13:34:51;4.60;99.90
23283;DHT22;11810;51.178;3.878;2022-12-08T13:37:44;4.60;99.90
23283;DHT22;11810;51.178;3.878;2022-12-08T13:45:25;4.80;99.90
23283;DHT22;11810;51.178;3.878;2022-12-08T13:49:29;4.80;99.90
23283;DHT22;11810;51.178;3.878;2022-12-08T13:51:58;4.50;99.90
23283;DHT22;11810;51.178;3.878;2022-12-08T13:54:34;4.40;99.90
23283;DHT22;11810;51.178;3.878;2022-12-08T13:57:06;4.40;99.90
23283;DHT22;11810;51.178;3.878;2022-12-08T13:59:33;4.40;99.90
23283;DHT22;11810;51.178;3.878;2022-12-08T14:02:38;4.40;99.90
23283;DHT22;11810;51.178;3.878;2022-12-08T14:05:06;4.40;99.90
23283;DHT22;11810;51.178;3.878;2022-12-08T14:07:32;4.50;99.90
23283;DHT22;11810;51.178;3.878;2022-12-08T14:10:00;4.50;99.90
23283;DHT22;11810;51.178;3.878;2022-12-08T14:12:29;4.60;99.90
23283;DHT22;11810;51.178;3.878;2022-12-08T14:15:04;4.60;99.90
23283;DHT22;11810;51.178;3.878;2022-12-08T14:17:32;4.70;99.90
23283;DHT22;11810;51.178;3.878;2022-12-08T14:20:27;4.90;99.90
23283;DHT22;11810;51.178;3.878;2022-12-08T14:22:54;4.90;99.90
23283;DHT22;11810;51.178;3.878;2022-12-08T14:27:32;4.80;99.90
23283;DHT22;11810;51.178;3.878;2022-12-08T14:32:50;4.80;99.90
23283;DHT22;11810;51.178;3.878;2022-12-08T14:36:28;4.90;99.90
23283;DHT22;11810;51.178;3.878;2022-12-08T14:38:55;5.00;99.90
23283;DHT22;11810;51.178;3.878;2022-12-08T14:41:26;5.10;99.90
23283;DHT22;11810;51.178;3.878;2022-12-08T14:44:32;5.10;99.90
23283;DHT22;11810;51.178;3.878;2022-12-08T14:58:44;5.30;99.90
23283;DHT22;11810;51.178;3.878;2022-12-08T15:01:17;5.40;99.90
23283;DHT22;11810;51.178;3.878;2022-12-08T15:03:46;5.50;99.90
23283;DHT22;11810;51.178;3.878;2022-12-08T15:06:13;5.50;99.90
23283;DHT22;11810;51.178;3.878;2022-12-08T15:08:55;5.40;99.90
23283;DHT22;11810;51.178;3.878;2022-12-08T15:13:50;5.30;99.90
23283;DHT22;11810;51.178;3.878;2022-12-08T15:22:06;4.90;99.90
23283;DHT22;11810;51.178;3.878;2022-12-08T15:24:33;4.50;99.90
23283;DHT22;11810;51.178;3.878;2022-12-08T15:27:00;4.40;99.90
23283;DHT22;11810;51.178;3.878;2022-12-08T15:29:29;4.30;99.90
23283;DHT22;11810;51.178;3.878;2022-12-08T15:31:57;4.30;99.90
23283;DHT22;11810;51.178;3.878;2022-12-08T15:34:24;4.20;99.90
23283;DHT22;11810;51.178;3.878;2022-12-08T15:37:36;4.10;99.90
23283;DHT22;11810;51.178;3.878;2022-12-08T15:40:02;4.10;99.90
23283;DHT22;11810;51.178;3.878;2022-12-08T15:42:36;4.10;99.90
23283;DHT22;11810;51.178;3.878;2022-12-08T15:45:02;4.00;99.90
23283;DHT22;11810;51.178;3.878;2022-12-08T15:47:29;3.70;99.90
23283;DHT22;11810;51.178;3.878;2022-12-08T15:49:55;3.80;99.90
23283;DHT22;11810;51.178;3.878;2022-12-08T15:52:23;3.70;99.90
23283;DHT22;11810;51.178;3.878;2022-12-08T15:54:49;3.70;99.90
23283;DHT22;11810;51.178;3.878;2022-12-08T15:57:29;3.50;99.90
23283;DHT22;11810;51.178;3.878;2022-12-08T16:00:37;3.40;99.90
23283;DHT22;11810;51.178;3.878;2022-12-08T16:03:03;3.30;99.90
23283;DHT22;11810;51.178;3.878;2022-12-08T16:05:30;3.20;99.90
23283;DHT22;11810;51.178;3.878;2022-12-08T16:08:39;3.30;99.90
23283;DHT22;11810;51.178;3.878;2022-12-08T16:11:05;3.20;99.90
23283;DHT22;11810;51.178;3.878;2022-12-08T16:13:50;3.20;99.90
23283;DHT22;11810;51.178;3.878;2022-12-08T16:16:18;3.10;99.90
23283;DHT22;11810;51.178;3.878;2022-12-08T16:18:48;2.90;99.90
23283;DHT22;11810;51.178;3.878;2022-12-08T16:21:17;2.80;99.90
23283;DHT22;11810;51.178;3.878;2022-12-08T16:23:43;2.70;99.90
23283;DHT22;11810;51.178;3.878;2022-12-08T16:26:42;2.50;99.90
23283;DHT22;11810;51.178;3.878;2022-12-08T16:29:17;2.50;99.90
23283;DHT22;11810;51.178;3.878;2022-12-08T16:33:42;2.50;99.90
23283;DHT22;11810;51.178;3.878;2022-12-08T16:36:09;2.40;99.90
23283;DHT22;11810;51.178;3.878;2022-12-08T16:38:35;2.40;99.90
23283;DHT22;11810;51.178;3.878;2022-12-08T16:41:02;2.40;99.90
23283;DHT22;11810;51.178;3.878;2022-12-08T16:43:46;2.40;99.90
23283;DHT22;11810;51.178;3.878;2022-12-08T16:46:20;2.30;99.90
23283;DHT22;11810;51.178;3.878;2022-12-08T16:48:48;2.30;99.90
23283;DHT22;11810;51.178;3.878;2022-12-08T16:51:44;2.30;99.90
23283;DHT22;11810;51.178;3.878;2022-12-08T16:54:11;2.30;99.90
23283;DHT22;11810;51.178;3.878;2022-12-08T16:58:46;2.40;99.90
23283;DHT22;11810;51.178;3.878;2022-12-08T17:01:15;2.20;99.90
23283;DHT22;11810;51.178;3.878;2022-12-08T17:03:42;2.20;99.90
23283;DHT22;11810;51.178;3.878;2022-12-08T17:06:14;2.20;99.90
23283;DHT22;11810;51.178;3.878;2022-12-08T17:08:41;2.20;99.90
23283;DHT22;11810;51.178;3.878;2022-12-08T17:11:07;2.20;99.90
23283;DHT22;11810;51.178;3.878;2022-12-08T17:13:35;2.10;99.90
23283;DHT22;11810;51.178;3.878;2022-12-08T17:16:02;2.10;99.90
23283;DHT22;11810;51.178;3.878;2022-12-08T17:18:32;2.10;99.90
23283;DHT22;11810;51.178;3.878;2022-12-08T17:20:57;2.00;99.90
23283;DHT22;11810;51.178;3.878;2022-12-08T17:23:48;1.90;99.90
23283;DHT22;11810;51.178;3.878;2022-12-08T17:26:14;2.00;99.90
23283;DHT22;11810;51.178;3.878;2022-12-08T17:28:40;1.90;99.90
23283;DHT22;11810;51.178;3.878;2022-12-08T17:31:11;1.90;99.90
23283;DHT22;11810;51.178;3.878;2022-12-08T17:33:38;1.90;99.90
23283;DHT22;11810;51.178;3.878;2022-12-08T17:36:08;2.00;99.90
23283;DHT22;11810;51.178;3.878;2022-12-08T17:38:36;2.00;99.90
23283;DHT22;11810;51.178;3.878;2022-12-08T17:41:04;1.80;99.90
23283;DHT22;11810;51.178;3.878;2022-12-08T17:43:31;1.90;99.90
23283;DHT22;11810;51.178;3.878;2022-12-08T17:45:57;2.00;99.90
23283;DHT22;11810;51.178;3.878;2022-12-08T17:48:24;2.00;99.90
23283;DHT22;11810;51.178;3.878;2022-12-08T17:50:50;2.10;99.90
23283;DHT22;11810;51.178;3.878;2022-12-08T17:53:16;2.10;99.90
23283;DHT22;11810;51.178;3.878;2022-12-08T17:55:49;2.20;99.90
23283;DHT22;11810;51.178;3.878;2022-12-08T17:58:51;2.40;99.90
23283;DHT22;11810;51.178;3.878;2022-12-08T18:01:17;2.60;99.90
23283;DHT22;11810;51.178;3.878;2022-12-08T18:03:43;2.70;99.90
23283;DHT22;11810;51.178;3.878;2022-12-08T18:06:11;2.80;99.90
23283;DHT22;11810;51.178;3.878;2022-12-08T18:08:38;2.90;99.90
23283;DHT22;11810;51.178;3.878;2022-12-08T18:11:04;2.90;99.90
23283;DHT22;11810;51.178;3.878;2022-12-08T18:13:54;3.10;99.90
23283;DHT22;11810;51.178;3.878;2022-12-08T18:16:22;3.10;99.90
23283;DHT22;11810;51.178;3.878;2022-12-08T18:18:48;3.20;99.90
23283;DHT22;11810;51.178;3.878;2022-12-08T18:21:15;3.20;99.90
23283;DHT22;11810;51.178;3.878;2022-12-08T18:23:43;3.30;99.90
23283;DHT22;11810;51.178;3.878;2022-12-08T18:26:25;3.10;99.90
23283;DHT22;11810;51.178;3.878;2022-12-08T18:28:52;3.00;99.90
23283;DHT22;11810;51.178;3.878;2022-12-08T18:31:19;3.00;99.90
23283;DHT22;11810;51.178;3.878;2022-12-08T18:33:47;3.00;99.90
23283;DHT22;11810;51.178;3.878;2022-12-08T18:37:56;3.00;99.90
23283;DHT22;11810;51.178;3.878;2022-12-08T18:40:23;3.00;99.90
23283;DHT22;11810;51.178;3.878;2022-12-08T18:42:55;3.10;99.90
23283;DHT22;11810;51.178;3.878;2022-12-08T18:45:21;3.20;99.90
23283;DHT22;11810;51.178;3.878;2022-12-08T18:47:49;3.10;99.90
23283;DHT22;11810;51.178;3.878;2022-12-08T18:50:16;3.20;99.90
23283;DHT22;11810;51.178;3.878;2022-12-08T18:52:44;3.10;99.90
23283;DHT22;11810;51.178;3.878;2022-12-08T18:55:10;3.10;99.90
23283;DHT22;11810;51.178;3.878;2022-12-08T18:57:37;3.20;99.90